Terminal Aerodrome Forecast
Issued by NWS

Home | Current Version | Previous Version | Text Only | Print | Product List | Glossary On
Versions: 1 2 3 4 5 6 7 8 9 10 11 12 13 14 15
428
FTUS42 TJSJ 201120
TAFJPS
TAF
TJPS 201120Z 2012/2112 02050G80KT 1SM +TSRA SCT015 OVC025CB
     FM201600 34060G100KT 1SM +TSRA SCT015 OVC025CB
     FM201900 25040G60KT 3SM SHRA SCT015 BKN025=

USA.gov is the U.S. government's official web portal to all federal, state and local government web resources and services.